ミールヌイ の空港の天気 - METARとTAF

Mirny ( UERR / MJZ ) - ロシア ミールヌイ
飛行場実況気象(Metar)
観測時間10/22 21:00 YAKT (10/22 12:00 UTC)
風向・風速南南東 2m/s
視程10km以上
天気現象
全天の4割程度の雲 雲底高度 370m
全天の8割程度の雲 雲底高度 610m
気温-5℃
湿度86%
気圧1007hPa
METARUERR 221200Z 15002MPS 9999 SCT012 BKN020CB M05/M07 Q1007 R25/490237 NOSIG RMK QFE725/0966
過去の天気等 Google飛行場航空写真 Wunderground天気予報

過去48時間のMETAR

飛行場予報(TAF)
発表時間: 10/22 20:00 YAKT (10/22 11:00 UTC)
予報対象時間: 22日21時 YAKT ~ 23日21時 YAKT
風向・風速南 3m/s
視程10km以上
全天の4割程度の雲 雲底高度 300m
全天の8割程度の積乱雲 雲底高度 610m
22日21時 YAKT ~ 23日3時 YAKT に一時的に
視程1500m
天気現象しゅう雪
全天の8割程度の雲 雲底高度 90m
全天を覆う積乱雲 雲底高度 460m
TAF UERR 221100Z 2212/2312 17003MPS 9999 SCT010 BKN020CB
TEMPO 2212/2218 1500 SHSN BKN003 OVC015CB